Airport details for: LATI (Albania)

Metar

LATI 172120Z 00000KT CAVOK 23/13 Q1014 NOSIG

General details

ICAO: LATI
IATA: TIA
Name (city): Tirana
Major:
Country: Albania
vACC: Albania vACC
Description:

Tirana International Airport, the only international airport in Albania, is located 8nm N of the city of Tirana, in a plain surrounded by terrain to the North, East and South, which rises quickly to over 6000ft within 15nm of the airport. The plain is open to the NNW only. Airport elevation in 119ft.

Scenery links:
FS9 scenery: Download
FSX/P3D scenery: Download
XP scenery:
Elevation: 125 ft.
Transition altitude: 10000 ft.
MSA: 8900 ft.
Latitude: 41.414722
Longitude: 19.720556
LATI Charts
LATI Notams
LATI Online stations

Runways

Number Course Length Elevation Lat Lon ILS ILS freq ILS FAC GP
18 171° 8973ft / 2735 m 109ft 41.426978 19.718939 109.1 171° 3.0°
36 351° 8973ft / 2735 m 125ft 41.402475 19.722197 - - 3.0°